Time;durP1;ratioP1;P1;durP2;ratioP2;P2;SDS_P1;SDS_P2;PMS_P1;PMS_P2;Temp;Humidity;BMP_temperature;BMP_pressure;BME280_temperature;BME280_humidity;BME280_pressure;Samples;Min_cycle;Max_cycle;Signal;HPM_P1;HPM_P2
2022/07/01 00:00:56;;;;;;;2.20;1.40;;;16.00;99.90;;;;;;4987970;28;20177;-61
2022/07/01 00:03:22;;;;;;;1.60;1.50;;;16.00;99.90;;;;;;4987587;28;20565;-60
2022/07/01 00:05:48;;;;;;;3.60;1.70;;;16.10;99.90;;;;;;4984929;28;20264;-61
2022/07/01 00:08:13;;;;;;;1.60;1.50;;;16.10;99.90;;;;;;4989330;28;20583;-61
2022/07/01 00:10:39;;;;;;;2.20;1.50;;;16.10;99.90;;;;;;4979738;28;20177;-61
2022/07/01 00:13:06;;;;;;;1.47;1.37;;;16.10;99.90;;;;;;4982092;28;20201;-61
2022/07/01 00:15:32;;;;;;;1.90;1.80;;;16.10;99.90;;;;;;4985838;28;20185;-61
2022/07/01 00:17:58;;;;;;;1.30;1.20;;;16.10;99.90;;;;;;4981028;28;20462;-61
2022/07/01 00:20:24;;;;;;;2.50;1.43;;;16.10;99.90;;;;;;4981022;28;20457;-61
2022/07/01 00:22:50;;;;;;;1.40;1.30;;;16.00;99.90;;;;;;4971880;28;20275;-61
2022/07/01 00:25:15;;;;;;;1.60;1.50;;;16.00;99.90;;;;;;4985718;28;20781;-61
2022/07/01 00:27:42;;;;;;;1.60;1.50;;;16.00;99.90;;;;;;4987002;28;20262;-61
2022/07/01 00:30:09;;;;;;;2.00;1.50;;;15.90;99.90;;;;;;4991679;28;20273;-61
2022/07/01 00:32:35;;;;;;;2.60;1.93;;;15.90;99.90;;;;;;4980859;28;21062;-61
2022/07/01 00:35:01;;;;;;;1.90;1.80;;;15.90;99.90;;;;;;4986395;28;20503;-61
2022/07/01 00:37:27;;;;;;;2.07;1.47;;;15.80;99.90;;;;;;4988495;28;21010;-61
2022/07/01 00:39:52;;;;;;;5.67;1.57;;;15.80;99.90;;;;;;4978608;28;20188;-60
2022/07/01 00:42:18;;;;;;;1.80;1.70;;;15.80;99.90;;;;;;4984568;28;20197;-61
2022/07/01 00:44:44;;;;;;;2.57;1.50;;;15.80;99.90;;;;;;4985123;28;20181;-61
2022/07/01 00:47:11;;;;;;;1.90;1.80;;;15.80;99.90;;;;;;4991471;28;20173;-61
2022/07/01 00:49:38;;;;;;;1.90;1.80;;;15.80;99.90;;;;;;4981137;28;20177;-61
2022/07/01 00:52:07;;;;;;;2.93;1.80;;;15.80;99.90;;;;;;4989650;28;20516;-61
2022/07/01 00:54:35;;;;;;;1.90;1.67;;;15.80;99.90;;;;;;4988142;28;20447;-61
2022/07/01 00:57:08;;;;;;;2.10;1.67;;;15.80;99.90;;;;;;4986421;28;20460;-61
2022/07/01 00:59:35;;;;;;;1.77;1.60;;;15.80;99.90;;;;;;4990142;28;20439;-61
2022/07/01 01:02:01;;;;;;;3.57;1.90;;;15.80;99.90;;;;;;4986405;28;20445;-61
2022/07/01 01:04:26;;;;;;;2.50;1.50;;;15.80;99.90;;;;;;4977373;28;20439;-61
2022/07/01 01:06:52;;;;;;;1.93;1.77;;;15.80;99.90;;;;;;4986534;28;20217;-62
2022/07/01 01:09:18;;;;;;;1.70;1.60;;;15.80;99.90;;;;;;4982446;28;20651;-61
2022/07/01 01:11:43;;;;;;;1.87;1.77;;;15.70;99.90;;;;;;4986788;28;20219;-62
2022/07/01 01:14:10;;;;;;;1.80;1.53;;;15.80;99.90;;;;;;4980868;28;20681;-61
2022/07/01 01:16:37;;;;;;;1.63;1.53;;;15.80;99.90;;;;;;4988526;28;20260;-61
2022/07/01 01:19:06;;;;;;;2.97;1.83;;;15.70;99.90;;;;;;4983205;28;20515;-62
2022/07/01 01:21:33;;;;;;;1.50;1.40;;;15.70;99.90;;;;;;4988095;28;20444;-61
2022/07/01 01:23:58;;;;;;;1.70;1.60;;;15.70;99.90;;;;;;4987589;28;20433;-61
2022/07/01 01:26:25;;;;;;;1.73;1.63;;;15.70;99.90;;;;;;4982316;28;20496;-61
2022/07/01 01:28:51;;;;;;;1.43;1.33;;;15.70;99.90;;;;;;4985154;28;20189;-61
2022/07/01 01:31:18;;;;;;;1.60;1.50;;;15.70;99.90;;;;;;4988789;28;20535;-61
2022/07/01 01:33:44;;;;;;;1.57;1.33;;;15.70;99.90;;;;;;4977397;28;20454;-62
2022/07/01 01:36:10;;;;;;;1.40;1.30;;;15.70;99.90;;;;;;4983909;28;20452;-61
2022/07/01 01:38:36;;;;;;;1.47;1.37;;;15.60;99.90;;;;;;4984910;28;20436;-61
2022/07/01 01:41:03;;;;;;;1.60;1.50;;;15.70;99.90;;;;;;4987055;28;20874;-60
2022/07/01 01:43:29;;;;;;;4.40;1.30;;;15.70;99.90;;;;;;4985935;28;20428;-61
2022/07/01 01:45:54;;;;;;;5.50;1.37;;;15.70;99.90;;;;;;4987340;28;20949;-62
2022/07/01 01:48:20;;;;;;;1.40;1.30;;;15.70;99.90;;;;;;4971745;28;20233;-61
2022/07/01 01:50:46;;;;;;;1.70;1.60;;;15.70;99.90;;;;;;4984626;28;20184;-61
2022/07/01 01:53:11;;;;;;;6.60;1.70;;;15.70;99.90;;;;;;4982519;28;20209;-62
2022/07/01 01:55:37;;;;;;;1.23;1.17;;;15.70;99.90;;;;;;4994255;28;20224;-61
2022/07/01 01:58:03;;;;;;;1.60;1.50;;;15.70;99.90;;;;;;4985829;28;20645;-62
2022/07/01 02:00:28;;;;;;;2.87;1.47;;;15.60;99.90;;;;;;4986404;28;20173;-61
2022/07/01 02:02:54;;;;;;;2.00;1.90;;;15.60;99.90;;;;;;4983158;28;20197;-61
2022/07/01 02:05:21;;;;;;;1.43;1.33;;;15.60;99.90;;;;;;4985716;28;20173;-61
2022/07/01 02:07:47;;;;;;;1.80;1.70;;;15.60;99.90;;;;;;4986155;28;20696;-61
2022/07/01 02:10:12;;;;;;;2.80;1.43;;;15.50;99.90;;;;;;4979252;28;20969;-61
2022/07/01 02:12:38;;;;;;;4.73;1.73;;;15.60;99.90;;;;;;4988221;28;20263;-61
2022/07/01 02:15:04;;;;;;;1.53;1.43;;;15.50;99.90;;;;;;4987359;28;20205;-61
2022/07/01 02:17:30;;;;;;;1.40;1.30;;;15.60;99.90;;;;;;4978320;28;20836;-61
2022/07/01 02:19:55;;;;;;;3.00;1.50;;;15.60;99.90;;;;;;4982341;28;20442;-61
2022/07/01 02:22:21;;;;;;;1.47;1.37;;;15.60;99.90;;;;;;4992520;28;20205;-62
2022/07/01 02:24:46;;;;;;;2.67;1.50;;;15.60;99.90;;;;;;4986685;28;20696;-60
2022/07/01 02:27:12;;;;;;;1.77;1.63;;;15.50;99.90;;;;;;4991755;28;20182;-62
2022/07/01 02:29:38;;;;;;;2.80;1.97;;;15.50;99.90;;;;;;4990697;28;20181;-61
2022/07/01 02:32:04;;;;;;;1.50;1.40;;;15.50;99.90;;;;;;4986026;28;20236;-61
2022/07/01 02:34:30;;;;;;;1.93;1.60;;;15.50;99.90;;;;;;4986020;28;20432;-61
2022/07/01 02:36:56;;;;;;;1.70;1.60;;;15.50;99.90;;;;;;4992043;28;20456;-62
2022/07/01 02:39:22;;;;;;;1.53;1.30;;;15.50;99.90;;;;;;4990563;28;20169;-61
2022/07/01 02:44:34;;;;;;;1.53;1.43;;;15.50;99.90;;;;;;4988519;28;20447;-61
2022/07/01 02:47:00;;;;;;;1.40;1.30;;;15.60;99.90;;;;;;4986947;28;21221;-62
2022/07/01 02:49:25;;;;;;;4.87;1.33;;;15.50;99.90;;;;;;4982313;28;20444;-62
2022/07/01 02:51:51;;;;;;;1.80;1.07;;;15.50;99.90;;;;;;4986215;28;20279;-62
2022/07/01 02:54:16;;;;;;;1.30;1.20;;;15.50;99.90;;;;;;4985710;28;20648;-61
2022/07/01 02:56:42;;;;;;;1.83;1.40;;;15.50;99.90;;;;;;4991020;28;20212;-61
2022/07/01 02:59:07;;;;;;;1.50;1.20;;;15.40;99.90;;;;;;4986956;28;20181;-62
2022/07/01 03:01:33;;;;;;;4.87;1.70;;;15.30;99.90;;;;;;4986556;28;20244;-61
2022/07/01 03:03:59;;;;;;;1.70;1.60;;;15.30;99.90;;;;;;4986051;28;20169;-62
2022/07/01 03:06:25;;;;;;;1.47;1.33;;;15.30;99.90;;;;;;4986814;28;20181;-62
2022/07/01 03:08:51;;;;;;;1.63;1.27;;;15.20;99.90;;;;;;4988494;28;20177;-61
2022/07/01 03:11:16;;;;;;;1.67;1.40;;;15.20;99.90;;;;;;4987675;28;20444;-61
2022/07/01 03:13:42;;;;;;;2.83;1.43;;;15.20;99.90;;;;;;4975289;28;20668;-61
2022/07/01 03:16:08;;;;;;;2.23;1.20;;;15.10;99.90;;;;;;4981033;28;20205;-61
2022/07/01 03:18:33;;;;;;;1.47;1.30;;;15.10;99.90;;;;;;4987772;28;20267;-62
2022/07/01 03:20:59;;;;;;;2.60;1.30;;;15.00;99.90;;;;;;4988716;28;20530;-61
2022/07/01 03:23:25;;;;;;;1.20;1.10;;;14.90;99.90;;;;;;4988581;28;20208;-62
2022/07/01 03:25:50;;;;;;;1.10;1.03;;;14.90;99.90;;;;;;4988605;28;20177;-61
2022/07/01 03:28:17;;;;;;;2.00;1.20;;;14.90;99.90;;;;;;4983432;28;20174;-61
2022/07/01 03:30:43;;;;;;;1.10;1.10;;;14.80;99.90;;;;;;4986293;28;20655;-62
2022/07/01 03:33:08;;;;;;;1.47;1.37;;;14.70;99.90;;;;;;4986407;28;20483;-61
2022/07/01 03:35:39;;;;;;;1.27;1.17;;;14.70;99.90;;;;;;4989123;28;20260;-61
2022/07/01 03:38:05;;;;;;;1.50;1.23;;;14.70;99.90;;;;;;4984680;28;20272;-61
2022/07/01 03:40:32;;;;;;;1.40;1.30;;;14.60;99.90;;;;;;4984949;28;20432;-61
2022/07/01 03:42:58;;;;;;;1.27;1.17;;;14.60;99.90;;;;;;4990555;28;21020;-61
2022/07/01 03:45:24;;;;;;;1.00;1.00;;;14.60;99.90;;;;;;4983397;28;20541;-61
2022/07/01 03:47:50;;;;;;;1.30;1.20;;;14.50;99.90;;;;;;4988301;28;20896;-61
2022/07/01 03:50:22;;;;;;;1.10;1.10;;;14.50;99.90;;;;;;4987018;28;20200;-60
2022/07/01 03:52:48;;;;;;;1.00;1.00;;;14.40;99.90;;;;;;4990107;28;20483;-61
2022/07/01 03:55:14;;;;;;;1.07;1.00;;;14.40;99.90;;;;;;4983183;28;20444;-57
2022/07/01 03:57:40;;;;;;;1.03;1.00;;;14.40;99.90;;;;;;4977213;28;20211;-58
2022/07/01 04:00:07;;;;;;;1.33;1.20;;;14.30;99.90;;;;;;4984164;28;20444;-57
2022/07/01 04:02:33;;;;;;;1.10;1.10;;;14.30;99.90;;;;;;4973971;28;20204;-57
2022/07/01 04:04:59;;;;;;;1.20;1.10;;;14.20;99.90;;;;;;4979687;28;20433;-60
2022/07/01 04:07:26;;;;;;;1.00;1.00;;;14.20;99.90;;;;;;4978826;28;20188;-61
2022/07/01 04:09:52;;;;;;;1.00;1.00;;;14.20;99.90;;;;;;4985557;28;20480;-61
2022/07/01 04:12:18;;;;;;;3.53;1.20;;;14.20;99.90;;;;;;4984611;28;20456;-62
2022/07/01 04:14:44;;;;;;;1.27;1.20;;;14.20;99.90;;;;;;4975872;28;20440;-62
2022/07/01 04:17:10;;;;;;;1.70;1.47;;;14.20;99.90;;;;;;4985931;28;20488;-62
2022/07/01 04:19:36;;;;;;;1.20;1.13;;;14.20;99.90;;;;;;4984783;28;20510;-62
2022/07/01 04:24:46;;;;;;;1.20;0.90;;;14.10;99.90;;;;;;4979776;28;20427;-61
2022/07/01 04:27:12;;;;;;;1.30;1.20;;;14.10;99.90;;;;;;4984308;28;20437;-62
2022/07/01 04:29:38;;;;;;;1.60;1.17;;;14.10;99.90;;;;;;4977881;28;20583;-62
2022/07/01 04:32:04;;;;;;;1.67;1.00;;;14.10;99.90;;;;;;4983068;28;20217;-62
2022/07/01 04:34:29;;;;;;;1.43;1.30;;;14.10;99.90;;;;;;4978935;28;20231;-62
2022/07/01 04:36:55;;;;;;;1.40;1.17;;;14.10;99.90;;;;;;4976413;28;20468;-63
2022/07/01 04:39:21;;;;;;;1.20;1.10;;;14.10;99.90;;;;;;4984402;28;20689;-62
2022/07/01 04:41:59;;;;;;;3.40;1.20;;;14.10;99.90;;;;;;4985108;28;20444;-62
2022/07/01 04:44:26;;;;;;;1.17;1.07;;;14.10;99.90;;;;;;4965732;28;20759;-63
2022/07/01 04:46:51;;;;;;;1.20;1.10;;;14.10;99.90;;;;;;4978804;28;20518;-61
2022/07/01 04:49:17;;;;;;;1.30;1.20;;;14.20;99.90;;;;;;4986440;28;20527;-62
2022/07/01 04:51:43;;;;;;;1.67;1.03;;;14.10;99.90;;;;;;4980518;28;20224;-62
2022/07/01 04:54:09;;;;;;;1.10;1.00;;;14.10;99.90;;;;;;4983730;28;20177;-62
2022/07/01 04:56:36;;;;;;;1.00;1.00;;;14.10;99.90;;;;;;4983079;28;20769;-62
2022/07/01 04:59:02;;;;;;;1.10;1.00;;;14.10;99.90;;;;;;4999956;28;20186;-62
2022/07/01 05:01:29;;;;;;;2.93;0.97;;;14.00;99.90;;;;;;4975679;28;20444;-63
2022/07/01 05:03:58;;;;;;;2.43;1.10;;;14.00;99.90;;;;;;4984229;28;20437;-61
2022/07/01 05:06:24;;;;;;;1.20;1.10;;;14.00;99.90;;;;;;4981270;28;20439;-62
2022/07/01 05:08:50;;;;;;;0.83;0.83;;;14.00;99.90;;;;;;4981597;28;20433;-62
2022/07/01 05:11:16;;;;;;;1.13;1.03;;;14.00;99.90;;;;;;4981473;28;20256;-61
2022/07/01 05:13:41;;;;;;;1.00;0.90;;;14.00;99.90;;;;;;4985940;28;20435;-62
2022/07/01 05:16:08;;;;;;;0.90;0.90;;;14.00;99.90;;;;;;4980843;28;20200;-62
2022/07/01 05:24:05;;;;;;;2.10;1.23;;;14.10;99.90;;;;;;4979169;28;21002;-62
2022/07/01 05:26:30;;;;;;;1.90;0.97;;;14.20;99.90;;;;;;4985127;28;20436;-62
2022/07/01 05:28:56;;;;;;;0.90;0.90;;;14.20;99.90;;;;;;4983664;28;20442;-62
2022/07/01 05:31:22;;;;;;;0.80;0.80;;;14.20;99.90;;;;;;4983241;28;20271;-62
2022/07/01 05:33:48;;;;;;;1.27;0.97;;;14.20;99.90;;;;;;4983718;28;20265;-59
2022/07/01 05:36:14;;;;;;;0.90;0.90;;;14.20;99.90;;;;;;4980445;28;20204;-62
2022/07/01 05:38:39;;;;;;;1.10;1.00;;;14.20;99.90;;;;;;4978130;28;20178;-62
2022/07/01 05:41:06;;;;;;;2.10;1.00;;;14.30;99.90;;;;;;4989335;28;20435;-61
2022/07/01 05:43:32;;;;;;;2.97;1.00;;;14.30;99.90;;;;;;4989192;28;20192;-62
2022/07/01 05:45:58;;;;;;;3.40;1.27;;;14.30;99.90;;;;;;4981727;28;20475;-62
2022/07/01 05:48:24;;;;;;;1.30;1.20;;;14.30;99.90;;;;;;4986347;28;21084;-61
2022/07/01 05:50:50;;;;;;;0.90;0.90;;;14.30;99.90;;;;;;4990693;28;20507;-62
2022/07/01 05:53:16;;;;;;;1.00;1.00;;;14.40;99.90;;;;;;4986623;28;20200;-58
2022/07/01 05:55:42;;;;;;;1.00;1.00;;;14.40;99.90;;;;;;4988847;28;20443;-63
2022/07/01 05:58:08;;;;;;;1.20;0.87;;;14.40;99.90;;;;;;4983866;28;20267;-63
2022/07/01 06:00:34;;;;;;;1.10;1.00;;;14.50;99.90;;;;;;4988229;28;20173;-61
2022/07/01 06:03:00;;;;;;;1.23;1.00;;;14.50;99.90;;;;;;4989023;28;21173;-63
2022/07/01 06:05:26;;;;;;;0.83;0.83;;;14.50;99.90;;;;;;4979204;28;20464;-63
2022/07/01 06:07:51;;;;;;;1.20;1.10;;;14.50;99.90;;;;;;4986944;28;20439;-62
2022/07/01 06:10:17;;;;;;;1.57;1.00;;;14.50;99.90;;;;;;4989050;28;20653;-62
2022/07/01 06:12:42;;;;;;;1.00;1.00;;;14.50;99.90;;;;;;4981063;28;20247;-62
2022/07/01 06:15:11;;;;;;;1.70;1.20;;;14.50;99.90;;;;;;4984734;28;20236;-62
2022/07/01 06:17:38;;;;;;;1.10;1.00;;;14.50;99.90;;;;;;4989910;28;20296;-62
2022/07/01 06:20:05;;;;;;;1.23;1.13;;;14.50;99.90;;;;;;4987381;28;20424;-62
2022/07/01 06:22:32;;;;;;;1.10;1.00;;;14.50;99.90;;;;;;4984942;28;20444;-63
2022/07/01 06:24:58;;;;;;;1.13;1.03;;;14.50;99.90;;;;;;4984031;28;20443;-62
2022/07/01 06:27:24;;;;;;;1.03;0.93;;;14.50;99.90;;;;;;4990173;28;20431;-63
2022/07/01 06:29:50;;;;;;;2.80;1.00;;;14.50;99.90;;;;;;4982143;28;20420;-63
2022/07/01 06:32:16;;;;;;;2.00;1.70;;;14.40;99.90;;;;;;4986959;28;20578;-62
2022/07/01 06:34:42;;;;;;;1.90;1.00;;;14.40;99.90;;;;;;4985812;28;20439;-63
2022/07/01 06:37:08;;;;;;;2.23;1.10;;;14.40;99.90;;;;;;4986614;28;20197;-62
2022/07/01 06:39:33;;;;;;;4.23;1.00;;;14.40;99.90;;;;;;4987011;28;20183;-63
2022/07/01 06:41:59;;;;;;;1.20;1.10;;;14.40;99.90;;;;;;4988523;28;20548;-62
2022/07/01 06:44:25;;;;;;;1.40;1.10;;;14.40;99.90;;;;;;4990378;28;20208;-62
2022/07/01 06:46:51;;;;;;;1.57;0.90;;;14.40;99.90;;;;;;4986464;28;20663;-63
2022/07/01 06:49:17;;;;;;;1.17;0.97;;;14.40;99.90;;;;;;4988253;28;20186;-62
2022/07/01 06:51:43;;;;;;;1.43;1.00;;;14.50;99.90;;;;;;4989466;28;21082;-63
2022/07/01 06:54:08;;;;;;;2.10;0.90;;;14.60;99.90;;;;;;4985387;28;20425;-62
2022/07/01 06:56:34;;;;;;;1.10;1.00;;;14.60;99.90;;;;;;4983036;28;20205;-62
2022/07/01 06:59:01;;;;;;;1.20;1.10;;;14.60;99.90;;;;;;4984389;28;20178;-63
2022/07/01 07:01:27;;;;;;;4.10;2.30;;;14.70;99.90;;;;;;4988076;28;20205;-62
2022/07/01 07:03:53;;;;;;;1.73;1.40;;;14.70;99.90;;;;;;4985420;28;20723;-62
2022/07/01 07:06:19;;;;;;;1.13;1.03;;;14.70;99.90;;;;;;4985459;28;20945;-62
2022/07/01 07:08:44;;;;;;;1.03;1.00;;;14.70;99.90;;;;;;4990525;28;20296;-63
2022/07/01 07:11:10;;;;;;;1.67;0.80;;;14.80;99.90;;;;;;4986667;28;20192;-63
2022/07/01 07:13:37;;;;;;;1.00;1.00;;;14.80;99.90;;;;;;4989108;28;20181;-61
2022/07/01 07:16:03;;;;;;;1.00;0.90;;;14.80;99.90;;;;;;4986517;28;20204;-61
2022/07/01 07:18:28;;;;;;;1.00;1.00;;;14.80;99.90;;;;;;4985354;28;20440;-62
2022/07/01 07:20:54;;;;;;;4.60;0.90;;;14.70;99.90;;;;;;4984542;28;20174;-62
2022/07/01 07:23:20;;;;;;;1.23;1.00;;;14.70;99.90;;;;;;4984718;28;20205;-62
2022/07/01 07:25:46;;;;;;;1.30;1.20;;;14.70;99.90;;;;;;4979730;28;20173;-62
2022/07/01 07:28:12;;;;;;;1.17;1.07;;;14.70;99.90;;;;;;4978388;28;20185;-58
2022/07/01 07:30:37;;;;;;;2.43;0.90;;;14.70;99.90;;;;;;4981387;28;20173;-64
2022/07/01 07:33:03;;;;;;;1.20;1.10;;;14.70;99.90;;;;;;4983630;28;20972;-62
2022/07/01 07:35:29;;;;;;;0.90;0.90;;;14.70;99.90;;;;;;4983729;28;21072;-62
2022/07/01 07:37:54;;;;;;;0.90;0.83;;;14.80;99.90;;;;;;4990101;28;20668;-62
2022/07/01 07:40:20;;;;;;;1.23;1.00;;;14.80;99.90;;;;;;4987150;28;20197;-62
2022/07/01 07:42:47;;;;;;;1.10;0.80;;;14.80;99.90;;;;;;4987138;28;20205;-62
2022/07/01 07:45:14;;;;;;;1.37;1.10;;;14.80;99.90;;;;;;4972684;28;20209;-59
2022/07/01 07:47:54;;;;;;;0.97;0.97;;;14.80;99.90;;;;;;4982265;28;20447;-59
2022/07/01 07:50:20;;;;;;;3.07;1.10;;;14.80;99.90;;;;;;4984342;28;20497;-59
2022/07/01 07:52:46;;;;;;;3.07;0.83;;;14.90;99.90;;;;;;4982897;28;20448;-59
2022/07/01 07:55:12;;;;;;;0.70;0.70;;;14.90;99.90;;;;;;4985631;28;20941;-58
2022/07/01 07:57:38;;;;;;;1.23;0.87;;;14.90;99.90;;;;;;4988419;28;20217;-59
2022/07/01 08:00:06;;;;;;;0.83;0.83;;;14.90;99.90;;;;;;4986468;28;20162;-58
2022/07/01 08:02:31;;;;;;;1.37;1.10;;;14.90;99.90;;;;;;4985303;28;20546;-59
2022/07/01 08:04:57;;;;;;;0.90;0.90;;;14.90;99.90;;;;;;4986752;28;20515;-59
2022/07/01 08:07:23;;;;;;;0.93;0.93;;;15.00;99.90;;;;;;4980955;28;20886;-59
2022/07/01 08:09:49;;;;;;;1.20;1.10;;;15.00;99.90;;;;;;4978150;28;20733;-62
2022/07/01 08:12:15;;;;;;;1.40;1.00;;;15.10;99.90;;;;;;4989155;28;20197;-62
2022/07/01 08:14:42;;;;;;;1.03;0.90;;;15.00;99.90;;;;;;4985731;28;20212;-62
2022/07/01 08:17:07;;;;;;;2.40;1.00;;;15.00;99.90;;;;;;4982455;28;20514;-62
2022/07/01 08:19:33;;;;;;;3.73;1.30;;;15.00;99.90;;;;;;4980841;28;20436;-62
2022/07/01 08:21:58;;;;;;;2.43;1.00;;;15.00;99.90;;;;;;4986360;28;20201;-62
2022/07/01 08:24:24;;;;;;;1.10;1.00;;;15.00;99.90;;;;;;4984698;28;20181;-63
2022/07/01 08:26:50;;;;;;;1.10;1.00;;;15.10;99.90;;;;;;4990117;28;20756;-62
2022/07/01 08:29:16;;;;;;;1.83;1.13;;;15.10;99.90;;;;;;4984604;28;20464;-62
2022/07/01 08:31:41;;;;;;;0.90;0.90;;;15.00;99.90;;;;;;4984424;28;20213;-63
2022/07/01 08:34:07;;;;;;;1.00;1.00;;;15.00;99.90;;;;;;4987040;28;20174;-62
2022/07/01 08:36:33;;;;;;;1.90;0.80;;;15.00;99.90;;;;;;4983900;28;20244;-61
2022/07/01 08:38:59;;;;;;;1.17;1.07;;;14.90;99.90;;;;;;4984368;28;20289;-63
2022/07/01 08:41:25;;;;;;;1.43;0.83;;;14.90;99.90;;;;;;4988802;28;21056;-63
2022/07/01 08:43:50;;;;;;;2.17;1.20;;;14.80;99.90;;;;;;4980722;28;20443;-63
2022/07/01 08:46:16;;;;;;;4.00;1.20;;;14.60;99.90;;;;;;4988567;28;20682;-61
2022/07/01 08:48:43;;;;;;;2.20;1.47;;;14.50;99.90;;;;;;4987455;28;20232;-62
2022/07/01 08:51:09;;;;;;;2.10;1.57;;;14.50;99.90;;;;;;4987045;28;20182;-61
2022/07/01 08:53:35;;;;;;;3.60;1.30;;;14.50;99.90;;;;;;4976775;28;20515;-62
2022/07/01 08:58:48;;;;;;;1.10;1.10;;;14.50;99.90;;;;;;4988532;28;20430;-62
2022/07/01 09:01:24;;;;;;;0.90;0.90;;;14.50;99.90;;;;;;4984690;28;20470;-62
2022/07/01 09:03:55;;;;;;;1.23;0.87;;;14.50;99.90;;;;;;4985589;28;20952;-63
2022/07/01 09:06:28;;;;;;;3.13;1.20;;;14.60;99.90;;;;;;4986359;28;20467;-61
2022/07/01 09:08:54;;;;;;;5.17;1.00;;;14.60;99.90;;;;;;4983331;28;21081;-62
2022/07/01 09:11:22;;;;;;;0.80;0.80;;;14.70;99.90;;;;;;4985119;28;20495;-63
2022/07/01 09:14:15;;;;;;;0.83;0.83;;;14.70;99.90;;;;;;4989044;28;20177;-62
2022/07/01 09:16:46;;;;;;;0.80;0.80;;;14.70;99.90;;;;;;4986931;28;20456;-62
2022/07/01 09:19:13;;;;;;;1.00;0.90;;;14.70;99.90;;;;;;4988239;28;20428;-62
2022/07/01 09:21:40;;;;;;;0.80;0.80;;;14.60;99.90;;;;;;4986666;28;20487;-62
2022/07/01 09:24:28;;;;;;;1.00;0.90;;;14.60;99.90;;;;;;4983279;28;20436;-62
2022/07/01 09:26:58;;;;;;;3.77;0.90;;;14.50;99.90;;;;;;4982454;28;20425;-62
2022/07/01 09:29:35;;;;;;;2.00;0.80;;;14.40;99.90;;;;;;4983239;28;21101;-62
2022/07/01 09:32:06;;;;;;;1.50;0.87;;;14.30;99.90;;;;;;4982370;28;20444;-62
2022/07/01 09:34:41;;;;;;;2.03;1.00;;;14.20;99.90;;;;;;4979460;28;20531;-63
2022/07/01 09:37:06;;;;;;;1.00;0.90;;;14.10;99.90;;;;;;4984211;28;20464;-62
2022/07/01 09:39:43;;;;;;;1.90;0.90;;;14.00;99.90;;;;;;4983064;28;20436;-62
2022/07/01 09:42:09;;;;;;;1.00;0.83;;;14.00;99.90;;;;;;4980950;28;20200;-62
2022/07/01 09:44:35;;;;;;;1.83;0.73;;;14.00;99.90;;;;;;4983682;28;20428;-63
2022/07/01 09:47:01;;;;;;;1.30;1.20;;;14.00;99.90;;;;;;4985832;28;20214;-60
2022/07/01 09:49:27;;;;;;;1.53;1.20;;;14.10;99.90;;;;;;4982669;28;20187;-62
2022/07/01 09:51:53;;;;;;;1.40;1.30;;;14.10;99.90;;;;;;4982091;28;20452;-62
2022/07/01 09:54:20;;;;;;;1.17;1.00;;;14.00;99.90;;;;;;4984748;28;20425;-63
2022/07/01 09:56:45;;;;;;;1.43;1.33;;;14.10;99.90;;;;;;4985323;28;20220;-63
2022/07/01 09:59:11;;;;;;;1.50;1.00;;;14.10;99.90;;;;;;4982456;28;21245;-63
2022/07/01 10:01:39;;;;;;;1.20;0.97;;;14.00;99.90;;;;;;4984835;28;20211;-62
2022/07/01 10:04:07;;;;;;;1.13;0.80;;;14.00;99.90;;;;;;4978379;28;21000;-60
2022/07/01 10:07:02;;;;;;;1.70;1.60;;;14.00;99.90;;;;;;4985334;28;20539;-60
2022/07/01 10:09:31;;;;;;;1.97;0.90;;;14.00;99.90;;;;;;4984481;28;20973;-60
2022/07/01 10:12:20;;;;;;;1.40;1.03;;;14.10;99.90;;;;;;4986848;28;20807;-62
2022/07/01 10:14:48;;;;;;;1.33;1.23;;;14.10;99.90;;;;;;4981284;28;20440;-60
2022/07/01 10:17:30;;;;;;;1.37;0.80;;;14.20;99.90;;;;;;4978168;28;20461;-60
2022/07/01 10:19:57;;;;;;;1.73;1.30;;;14.20;99.90;;;;;;4980535;28;21170;-61
2022/07/01 10:22:28;;;;;;;1.10;1.00;;;14.20;99.90;;;;;;4986420;28;20972;-61
2022/07/01 10:24:55;;;;;;;1.60;1.10;;;14.10;99.90;;;;;;4977008;28;20906;-60
2022/07/01 10:27:23;;;;;;;3.73;0.80;;;14.10;99.90;;;;;;4984633;28;20432;-60
2022/07/01 10:30:09;;;;;;;1.10;1.00;;;14.10;99.90;;;;;;4982282;28;20432;-61
2022/07/01 10:32:45;;;;;;;1.43;0.90;;;14.10;99.90;;;;;;4976626;28;21070;-60
2022/07/01 10:35:12;;;;;;;1.00;1.00;;;14.10;99.90;;;;;;4983557;28;20472;-60
2022/07/01 10:37:57;;;;;;;1.17;0.97;;;14.10;99.90;;;;;;4989983;28;20468;-60
2022/07/01 10:40:41;;;;;;;1.73;1.17;;;14.20;99.90;;;;;;4986536;28;20542;-63
2022/07/01 10:43:06;;;;;;;1.10;1.10;;;14.40;99.90;;;;;;4985102;28;20546;-62
2022/07/01 10:45:44;;;;;;;1.20;0.97;;;14.50;99.90;;;;;;4989049;28;20456;-62
2022/07/01 10:48:24;;;;;;;2.37;1.10;;;14.50;99.90;;;;;;4984144;28;20183;-62
2022/07/01 10:50:50;;;;;;;1.43;1.17;;;14.60;99.90;;;;;;4985101;28;20917;-63
2022/07/01 10:53:17;;;;;;;1.17;1.10;;;14.80;99.90;;;;;;4982258;28;20555;-63
2022/07/01 10:55:53;;;;;;;5.10;1.10;;;14.80;99.90;;;;;;4985228;28;20519;-63
2022/07/01 10:58:38;;;;;;;0.80;0.80;;;14.80;99.90;;;;;;4990067;28;20483;-63
2022/07/01 11:01:04;;;;;;;2.03;1.20;;;14.80;99.90;;;;;;4986193;28;20972;-63
2022/07/01 11:03:39;;;;;;;0.87;0.87;;;14.80;99.90;;;;;;4983121;28;20452;-63
2022/07/01 11:06:05;;;;;;;2.10;1.57;;;14.90;99.90;;;;;;4985536;28;20432;-63
2022/07/01 11:08:31;;;;;;;3.33;2.80;;;14.90;99.90;;;;;;4984727;28;20459;-60
2022/07/01 11:11:03;;;;;;;1.27;1.17;;;14.90;99.90;;;;;;4980272;28;21792;-58
2022/07/01 11:13:29;;;;;;;1.00;1.00;;;14.90;99.90;;;;;;4979897;28;20209;-62
2022/07/01 11:15:55;;;;;;;1.00;0.90;;;14.90;99.90;;;;;;4978199;28;20874;-64
2022/07/01 11:18:21;;;;;;;1.90;1.77;;;14.90;99.90;;;;;;4978426;28;20435;-64
2022/07/01 11:20:47;;;;;;;1.40;1.30;;;14.90;99.90;;;;;;4980396;28;20891;-63
2022/07/01 11:23:13;;;;;;;1.37;1.27;;;15.00;99.90;;;;;;4974509;28;20321;-63
2022/07/01 11:25:39;;;;;;;1.67;1.30;;;15.10;99.90;;;;;;4975418;28;20218;-64
2022/07/01 11:28:05;;;;;;;1.60;1.27;;;15.10;99.90;;;;;;4977597;28;20543;-63
2022/07/01 11:30:31;;;;;;;1.30;1.20;;;15.20;99.90;;;;;;4982144;28;20723;-62
2022/07/01 11:32:58;;;;;;;1.43;1.33;;;15.30;99.90;;;;;;4982892;28;20202;-63
2022/07/01 11:41:09;;;;;;;1.30;1.10;;;15.50;99.90;;;;;;4979331;28;20443;-63
2022/07/01 11:43:39;;;;;;;1.00;1.00;;;15.60;99.90;;;;;;4981300;28;20973;-63
2022/07/01 11:46:07;;;;;;;1.30;1.20;;;15.80;99.90;;;;;;4973624;28;20445;-62
2022/07/01 11:48:45;;;;;;;1.43;1.23;;;15.90;99.90;;;;;;4983093;28;20441;-62
2022/07/01 11:51:17;;;;;;;1.10;1.00;;;16.20;99.90;;;;;;4981359;28;20938;-62
2022/07/01 11:53:45;;;;;;;1.30;1.20;;;16.50;99.90;;;;;;4981256;28;20429;-62
2022/07/01 11:56:12;;;;;;;1.40;1.30;;;16.90;99.90;;;;;;4978190;28;20428;-62
2022/07/01 11:58:50;;;;;;;1.37;1.17;;;17.30;99.90;;;;;;4980217;28;20437;-62
2022/07/01 12:01:26;;;;;;;1.40;1.30;;;17.60;99.90;;;;;;4981704;28;20531;-63
2022/07/01 12:03:53;;;;;;;1.23;1.07;;;18.00;99.90;;;;;;4976363;28;20451;-62
2022/07/01 12:06:19;;;;;;;0.90;0.90;;;18.20;99.90;;;;;;4974350;28;20444;-62
2022/07/01 12:08:47;;;;;;;0.90;0.90;;;18.30;99.90;;;;;;4980172;28;20432;-62
2022/07/01 12:11:13;;;;;;;1.07;0.97;;;18.30;99.90;;;;;;4979306;28;20844;-63
2022/07/01 12:13:39;;;;;;;1.00;1.00;;;18.40;99.90;;;;;;4982388;28;20452;-63
2022/07/01 12:16:11;;;;;;;1.00;0.90;;;18.40;99.90;;;;;;4979267;28;20440;-63
2022/07/01 12:18:38;;;;;;;0.90;0.90;;;18.20;99.80;;;;;;4974724;28;20236;-62
2022/07/01 12:21:04;;;;;;;1.07;1.00;;;18.00;99.90;;;;;;4983663;28;20440;-62
2022/07/01 12:23:32;;;;;;;1.80;1.20;;;17.90;99.90;;;;;;4979229;28;21592;-62
2022/07/01 12:25:57;;;;;;;4.00;1.30;;;17.80;99.90;;;;;;4980479;28;20432;-62
2022/07/01 12:28:31;;;;;;;1.90;0.90;;;17.70;99.90;;;;;;4975903;28;20961;-60
2022/07/01 12:31:15;;;;;;;1.20;0.90;;;17.60;99.90;;;;;;4980122;28;20235;-61
2022/07/01 12:33:49;;;;;;;1.67;1.30;;;17.30;99.90;;;;;;4976980;28;20938;-61
2022/07/01 12:36:15;;;;;;;1.33;1.00;;;17.10;99.90;;;;;;4978216;28;20460;-61
2022/07/01 12:38:42;;;;;;;1.30;1.00;;;16.90;99.90;;;;;;4976672;28;20536;-60
2022/07/01 12:41:27;;;;;;;3.80;0.90;;;16.70;99.90;;;;;;4980709;28;20483;-60
2022/07/01 12:43:54;;;;;;;1.10;1.00;;;16.80;99.90;;;;;;4974784;28;20468;-60
2022/07/01 12:46:30;;;;;;;1.10;1.00;;;17.00;99.90;;;;;;4978516;28;20507;-60
2022/07/01 12:48:57;;;;;;;1.07;0.97;;;17.40;99.90;;;;;;4976884;28;20440;-59
2022/07/01 12:51:30;;;;;;;1.53;0.90;;;17.60;99.90;;;;;;4982504;28;20478;-59
2022/07/01 12:53:55;;;;;;;0.93;0.90;;;17.70;99.40;;;;;;4979114;28;20527;-61
2022/07/01 12:56:27;;;;;;;0.90;0.80;;;17.70;99.60;;;;;;4976071;28;20480;-58
2022/07/01 12:58:53;;;;;;;0.70;0.70;;;17.70;99.90;;;;;;4971457;28;20177;-58
2022/07/01 13:01:19;;;;;;;4.07;1.20;;;17.70;99.90;;;;;;4980732;28;20432;-59
2022/07/01 13:03:45;;;;;;;1.30;0.77;;;17.70;99.90;;;;;;4977741;28;20490;-58
2022/07/01 13:06:11;;;;;;;0.97;0.87;;;17.60;99.90;;;;;;4977344;28;20444;-59
2022/07/01 13:08:37;;;;;;;1.77;1.27;;;17.50;99.90;;;;;;4976234;28;20437;-59